Time;durP1;ratioP1;P1;durP2;ratioP2;P2;SDS_P1;SDS_P2;PMS_P1;PMS_P2;Temp;Humidity;BMP_temperature;BMP_pressure;BME280_temperature;BME280_humidity;BME280_pressure;Samples;Min_cycle;Max_cycle;Signal;HPM_P1;HPM_P2
2022/01/18 00:00:40;;;;;;;0.00;0.00;;;;;;;;;;5038671;28;20195;-63
2022/01/18 00:03:09;;;;;;;0.00;0.00;;;;;;;;;;5038096;28;20200;-65
2022/01/18 00:05:36;;;;;;;0.00;0.00;;;;;;;;;;5038315;28;20219;-64
2022/01/18 00:08:04;;;;;;;1.20;0.83;;;;;;;;;;5038279;28;20249;-64
2022/01/18 00:10:32;;;;;;;0.00;0.00;;;;;;;;;;5038857;28;20196;-64
2022/01/18 00:13:23;;;;;;;0.00;0.00;;;;;;;;;;5039884;28;20700;-64
2022/01/18 00:16:10;;;;;;;0.30;0.30;;;;;;;;;;5041837;28;20257;-66
2022/01/18 00:18:40;;;;;;;0.00;0.00;;;;;;;;;;5037165;28;20236;-67
2022/01/18 00:21:27;;;;;;;0.10;0.10;;;;;;;;;;5037238;28;20197;-66
2022/01/18 00:23:57;;;;;;;0.00;0.00;;;;;;;;;;5036631;28;20204;-66
2022/01/18 00:26:27;;;;;;;0.00;0.00;;;;;;;;;;5036231;28;20647;-66
2022/01/18 00:28:58;;;;;;;0.00;0.00;;;;;;;;;;5038654;28;20668;-66
2022/01/18 00:34:19;;;;;;;0.00;0.00;;;;;;;;;;5038268;28;20234;-66
2022/01/18 00:37:01;;;;;;;0.00;0.00;;;;;;;;;;5038574;28;20195;-65
2022/01/18 00:39:28;;;;;;;0.00;0.00;;;;;;;;;;5039884;28;20202;-65
2022/01/18 00:41:56;;;;;;;0.00;0.00;;;;;;;;;;5040843;28;20200;-64
2022/01/18 00:44:23;;;;;;;0.00;0.00;;;;;;;;;;5039854;28;20196;-64
2022/01/18 00:46:51;;;;;;;0.00;0.00;;;;;;;;;;5038706;28;20200;-65
2022/01/18 00:49:20;;;;;;;0.00;0.00;;;;;;;;;;5038418;28;20199;-65
2022/01/18 00:51:54;;;;;;;0.00;0.00;;;;;;;;;;5040624;28;20208;-64
2022/01/18 00:54:25;;;;;;;0.00;0.00;;;;;;;;;;5039152;28;20231;-67
2022/01/18 00:56:54;;;;;;;0.00;0.00;;;;;;;;;;5037813;28;20196;-65
2022/01/18 00:59:22;;;;;;;0.03;0.03;;;;;;;;;;5037276;28;20204;-66
2022/01/18 01:01:50;;;;;;;0.00;0.00;;;;;;;;;;5040794;28;20725;-66
2022/01/18 01:04:21;;;;;;;0.00;0.00;;;;;;;;;;5029229;28;22313;-66
2022/01/18 01:06:50;;;;;;;0.00;0.00;;;;;;;;;;5010518;28;20204;-66
2022/01/18 01:09:17;;;;;;;0.00;0.00;;;;;;;;;;5004748;28;20207;-69
2022/01/18 01:11:44;;;;;;;0.00;0.00;;;;;;;;;;5011607;28;20204;-66
2022/01/18 01:14:17;;;;;;;0.00;0.00;;;;;;;;;;5008128;28;20235;-66
2022/01/18 01:16:58;;;;;;;0.00;0.00;;;;;;;;;;5010221;28;20199;-68
2022/01/18 01:36:09;;;;;;;0.00;0.00;;;;;;;;;;5016888;28;20207;-66
2022/01/18 01:41:49;;;;;;;0.00;0.00;;;;;;;;;;5016271;28;20252;-66
2022/01/18 01:44:24;;;;;;;0.00;0.00;;;;;;;;;;5012044;28;20854;-67
2022/01/18 01:46:52;;;;;;;0.10;0.10;;;;;;;;;;5006714;28;20382;-67
2022/01/18 01:49:22;;;;;;;0.00;0.00;;;;;;;;;;5009131;28;20200;-66
2022/01/18 01:51:50;;;;;;;0.00;0.00;;;;;;;;;;5011005;28;20698;-64
2022/01/18 01:54:19;;;;;;;0.00;0.00;;;;;;;;;;5008687;28;20239;-65
2022/01/18 01:56:47;;;;;;;0.00;0.00;;;;;;;;;;5011484;28;20201;-66
2022/01/18 01:59:14;;;;;;;0.00;0.00;;;;;;;;;;5008849;28;20198;-66
2022/01/18 02:01:43;;;;;;;0.00;0.00;;;;;;;;;;5015706;28;20204;-66
2022/01/18 02:04:11;;;;;;;0.00;0.00;;;;;;;;;;5013717;28;20703;-65
2022/01/18 02:06:38;;;;;;;0.00;0.00;;;;;;;;;;5005768;28;20200;-67
2022/01/18 02:09:05;;;;;;;0.00;0.00;;;;;;;;;;5007601;28;20681;-65
2022/01/18 02:11:34;;;;;;;0.00;0.00;;;;;;;;;;5007178;28;20216;-65
2022/01/18 02:14:04;;;;;;;0.00;0.00;;;;;;;;;;5008103;28;20239;-67
2022/01/18 02:22:01;;;;;;;0.00;0.00;;;;;;;;;;5012287;28;20210;-65
2022/01/18 02:24:29;;;;;;;0.00;0.00;;;;;;;;;;5009545;28;20212;-65
2022/01/18 02:26:56;;;;;;;0.00;0.00;;;;;;;;;;5013195;28;21677;-67
2022/01/18 02:29:23;;;;;;;0.00;0.00;;;;;;;;;;5009522;28;20207;-65
2022/01/18 02:31:51;;;;;;;0.00;0.00;;;;;;;;;;5024671;28;20251;-67
2022/01/18 02:34:20;;;;;;;0.00;0.00;;;;;;;;;;5024578;28;20872;-67
2022/01/18 02:36:47;;;;;;;0.00;0.00;;;;;;;;;;5028645;28;20681;-63
2022/01/18 02:39:19;;;;;;;0.00;0.00;;;;;;;;;;5039274;28;20238;-65
2022/01/18 02:41:52;;;;;;;0.00;0.00;;;;;;;;;;5046812;28;20196;-67
2022/01/18 02:44:19;;;;;;;0.00;0.00;;;;;;;;;;5028785;28;20192;-66
2022/01/18 02:46:47;;;;;;;0.00;0.00;;;;;;;;;;5028929;28;20593;-66
2022/01/18 02:49:14;;;;;;;0.00;0.00;;;;;;;;;;5035869;28;20222;-65
2022/01/18 02:51:42;;;;;;;0.00;0.00;;;;;;;;;;5048426;28;20718;-65
2022/01/18 02:54:10;;;;;;;0.00;0.00;;;;;;;;;;5029950;28;20272;-65
2022/01/18 02:56:41;;;;;;;0.00;0.00;;;;;;;;;;5037149;28;20657;-65
2022/01/18 02:59:16;;;;;;;0.00;0.00;;;;;;;;;;5047555;28;20580;-65
2022/01/18 03:04:32;;;;;;;0.00;0.00;;;;;;;;;;5010633;28;20560;-66
2022/01/18 03:06:59;;;;;;;0.00;0.00;;;;;;;;;;5036120;28;20295;-65
2022/01/18 03:09:27;;;;;;;0.00;0.00;;;;;;;;;;5036003;28;20202;-65
2022/01/18 03:11:56;;;;;;;0.00;0.00;;;;;;;;;;5033934;28;20188;-68
2022/01/18 03:14:23;;;;;;;0.00;0.00;;;;;;;;;;5035692;28;20220;-66
2022/01/18 03:16:51;;;;;;;0.00;0.00;;;;;;;;;;5034317;28;20200;-67
2022/01/18 03:19:19;;;;;;;0.00;0.00;;;;;;;;;;5033019;28;20223;-66
2022/01/18 03:21:46;;;;;;;0.00;0.00;;;;;;;;;;5030223;28;20664;-66
2022/01/18 03:24:30;;;;;;;0.00;0.00;;;;;;;;;;5035156;28;20208;-66
2022/01/18 03:29:44;;;;;;;0.00;0.00;;;;;;;;;;5049931;28;20277;-65
2022/01/18 03:32:12;;;;;;;0.00;0.00;;;;;;;;;;5043799;28;20204;-65
2022/01/18 03:34:39;;;;;;;0.00;0.00;;;;;;;;;;5035727;28;20215;-65
2022/01/18 03:37:06;;;;;;;0.00;0.00;;;;;;;;;;5038058;28;20199;-65
2022/01/18 03:39:33;;;;;;;0.00;0.00;;;;;;;;;;5039687;28;20203;-66
2022/01/18 03:42:32;;;;;;;0.00;0.00;;;;;;;;;;5033453;28;20220;-66
2022/01/18 03:45:01;;;;;;;0.00;0.00;;;;;;;;;;5032095;28;20193;-64
2022/01/18 03:47:28;;;;;;;0.00;0.00;;;;;;;;;;5034790;28;20534;-65
2022/01/18 03:49:57;;;;;;;0.00;0.00;;;;;;;;;;5036100;28;20676;-65
2022/01/18 03:52:24;;;;;;;0.00;0.00;;;;;;;;;;5035736;28;20409;-66
2022/01/18 03:54:51;;;;;;;0.00;0.00;;;;;;;;;;5034238;28;20258;-64
2022/01/18 03:57:20;;;;;;;0.00;0.00;;;;;;;;;;5039290;28;20196;-65
2022/01/18 03:59:48;;;;;;;0.00;0.00;;;;;;;;;;5041218;28;20193;-66
2022/01/18 04:02:15;;;;;;;0.00;0.00;;;;;;;;;;5035791;28;20668;-65
2022/01/18 04:04:43;;;;;;;0.00;0.00;;;;;;;;;;5038632;28;20222;-65
2022/01/18 04:07:10;;;;;;;0.00;0.00;;;;;;;;;;5031935;28;20585;-66
2022/01/18 04:09:38;;;;;;;0.00;0.00;;;;;;;;;;5034159;28;20204;-66
2022/01/18 04:12:06;;;;;;;0.00;0.00;;;;;;;;;;5032097;28;20201;-64
2022/01/18 04:14:35;;;;;;;0.00;0.00;;;;;;;;;;5034714;28;20222;-64
2022/01/18 04:17:09;;;;;;;0.00;0.00;;;;;;;;;;5032751;28;20189;-64
2022/01/18 04:28:00;;;;;;;0.00;0.00;;;;;;;;;;5034117;28;20257;-65
2022/01/18 04:30:29;;;;;;;0.00;0.00;;;;;;;;;;5042386;28;20282;-65
2022/01/18 04:32:56;;;;;;;0.00;0.00;;;;;;;;;;5031635;28;20551;-64
2022/01/18 04:35:24;;;;;;;0.00;0.00;;;;;;;;;;5044381;28;20723;-66
2022/01/18 04:37:51;;;;;;;0.00;0.00;;;;;;;;;;5050400;28;20656;-65
2022/01/18 04:40:25;;;;;;;0.00;0.00;;;;;;;;;;5041931;28;20196;-65
2022/01/18 04:43:02;;;;;;;0.00;0.00;;;;;;;;;;5030842;28;20598;-67
2022/01/18 04:48:27;;;;;;;0.00;0.00;;;;;;;;;;5022061;28;20250;-64
2022/01/18 04:50:55;;;;;;;0.00;0.00;;;;;;;;;;5050530;28;20184;-65
2022/01/18 04:53:22;;;;;;;0.00;0.00;;;;;;;;;;5050269;28;20192;-65
2022/01/18 04:55:54;;;;;;;0.00;0.00;;;;;;;;;;5049439;28;20219;-65
2022/01/18 04:58:22;;;;;;;0.10;0.10;;;;;;;;;;5033289;28;20212;-66
2022/01/18 05:00:52;;;;;;;0.00;0.00;;;;;;;;;;5030410;28;20188;-65
2022/01/18 05:03:20;;;;;;;0.00;0.00;;;;;;;;;;5030873;28;20659;-65
2022/01/18 05:05:49;;;;;;;0.00;0.00;;;;;;;;;;5033364;28;20199;-65
2022/01/18 05:08:18;;;;;;;0.00;0.00;;;;;;;;;;5031303;28;20265;-66
2022/01/18 05:10:51;;;;;;;0.00;0.00;;;;;;;;;;5033767;28;20207;-65
2022/01/18 05:13:34;;;;;;;0.00;0.00;;;;;;;;;;5034788;28;20211;-66
2022/01/18 05:16:20;;;;;;;0.00;0.00;;;;;;;;;;5034510;28;20234;-65
2022/01/18 05:19:10;;;;;;;0.00;0.00;;;;;;;;;;5033893;28;20242;-65
2022/01/18 05:24:19;;;;;;;0.00;0.00;;;;;;;;;;5035489;28;20656;-67
2022/01/18 05:26:47;;;;;;;0.00;0.00;;;;;;;;;;5034065;28;20196;-64
2022/01/18 05:29:14;;;;;;;0.00;0.00;;;;;;;;;;5030429;28;20200;-65
2022/01/18 05:31:43;;;;;;;0.00;0.00;;;;;;;;;;5034508;28;20569;-66
2022/01/18 05:34:10;;;;;;;0.00;0.00;;;;;;;;;;5031038;28;20220;-67
2022/01/18 05:36:38;;;;;;;0.00;0.00;;;;;;;;;;5030437;28;20203;-66
2022/01/18 05:39:05;;;;;;;0.00;0.00;;;;;;;;;;5038814;28;20199;-66
2022/01/18 05:41:33;;;;;;;0.00;0.00;;;;;;;;;;5042334;28;20196;-64
2022/01/18 05:44:00;;;;;;;0.00;0.00;;;;;;;;;;5031318;28;20204;-67
2022/01/18 05:46:28;;;;;;;0.00;0.00;;;;;;;;;;5032268;28;20665;-64
2022/01/18 05:49:00;;;;;;;0.00;0.00;;;;;;;;;;5033062;28;20188;-65
2022/01/18 05:51:28;;;;;;;0.00;0.00;;;;;;;;;;5033944;28;20262;-65
2022/01/18 05:53:55;;;;;;;0.00;0.00;;;;;;;;;;5032315;28;20667;-66
2022/01/18 05:56:22;;;;;;;0.00;0.00;;;;;;;;;;5035711;28;20665;-66
2022/01/18 05:58:50;;;;;;;0.00;0.00;;;;;;;;;;5030364;28;20195;-65
2022/01/18 06:01:25;;;;;;;0.00;0.00;;;;;;;;;;5031786;28;20192;-66
2022/01/18 06:04:07;;;;;;;0.00;0.00;;;;;;;;;;5034150;28;20295;-65
2022/01/18 06:06:51;;;;;;;0.13;0.13;;;;;;;;;;5033589;28;20287;-67
2022/01/18 06:09:19;;;;;;;0.00;0.00;;;;;;;;;;5031047;28;20782;-66
2022/01/18 06:11:47;;;;;;;0.00;0.00;;;;;;;;;;5028524;28;20238;-65
2022/01/18 06:14:14;;;;;;;0.00;0.00;;;;;;;;;;5031553;28;20227;-64
2022/01/18 06:16:42;;;;;;;0.00;0.00;;;;;;;;;;5029514;28;20902;-64
2022/01/18 06:19:09;;;;;;;0.00;0.00;;;;;;;;;;5029078;28;20607;-65
2022/01/18 06:21:38;;;;;;;0.00;0.00;;;;;;;;;;5034204;28;20782;-65
2022/01/18 06:24:09;;;;;;;0.00;0.00;;;;;;;;;;5034394;28;20199;-68
2022/01/18 06:26:36;;;;;;;0.00;0.00;;;;;;;;;;5028913;28;20196;-66
2022/01/18 06:29:04;;;;;;;0.00;0.00;;;;;;;;;;5031295;28;20199;-65
2022/01/18 06:31:31;;;;;;;0.10;0.10;;;;;;;;;;5031485;28;20196;-65
2022/01/18 06:33:59;;;;;;;0.00;0.00;;;;;;;;;;5037903;28;20193;-65
2022/01/18 06:36:26;;;;;;;0.10;0.10;;;;;;;;;;5037577;28;20223;-63
2022/01/18 06:38:55;;;;;;;0.00;0.00;;;;;;;;;;5034173;28;20291;-65
2022/01/18 06:41:23;;;;;;;0.00;0.00;;;;;;;;;;5032755;28;20192;-65
2022/01/18 06:43:51;;;;;;;0.00;0.00;;;;;;;;;;5035893;28;20197;-64
2022/01/18 06:46:18;;;;;;;0.00;0.00;;;;;;;;;;5034971;28;20574;-65
2022/01/18 06:48:46;;;;;;;0.00;0.00;;;;;;;;;;5038254;28;20195;-64
2022/01/18 06:51:14;;;;;;;0.00;0.00;;;;;;;;;;5040282;28;20199;-65
2022/01/18 06:53:46;;;;;;;0.00;0.00;;;;;;;;;;5043710;28;20198;-64
2022/01/18 06:56:16;;;;;;;0.10;0.10;;;;;;;;;;5042096;28;20909;-66
2022/01/18 06:58:44;;;;;;;0.00;0.00;;;;;;;;;;5036119;28;20205;-65
2022/01/18 07:01:12;;;;;;;0.40;0.40;;;;;;;;;;5036979;28;20199;-65
2022/01/18 07:03:40;;;;;;;0.00;0.00;;;;;;;;;;5037566;28;20201;-65
2022/01/18 07:06:07;;;;;;;0.00;0.00;;;;;;;;;;5043082;28;20204;-65
2022/01/18 07:08:35;;;;;;;0.10;0.10;;;;;;;;;;5032727;28;20214;-66
2022/01/18 07:11:03;;;;;;;0.00;0.00;;;;;;;;;;5033911;28;20196;-64
2022/01/18 07:13:32;;;;;;;0.00;0.00;;;;;;;;;;5033330;28;20189;-63
2022/01/18 07:15:59;;;;;;;0.00;0.00;;;;;;;;;;5033454;28;20231;-66
2022/01/18 07:18:27;;;;;;;1.07;1.07;;;;;;;;;;5047240;28;20206;-64
2022/01/18 07:20:54;;;;;;;0.00;0.00;;;;;;;;;;5039281;28;20206;-65
2022/01/18 07:23:22;;;;;;;0.00;0.00;;;;;;;;;;5040727;28;20203;-67
2022/01/18 07:25:49;;;;;;;0.40;0.40;;;;;;;;;;5032474;28;20576;-64
2022/01/18 07:28:18;;;;;;;0.00;0.00;;;;;;;;;;5042691;28;20206;-64
2022/01/18 07:30:48;;;;;;;0.47;0.47;;;;;;;;;;5037090;28;20258;-65
2022/01/18 07:33:15;;;;;;;0.53;0.13;;;;;;;;;;5041194;28;20195;-65
2022/01/18 07:35:43;;;;;;;1.47;1.37;;;;;;;;;;5038376;28;20888;-63
2022/01/18 07:38:12;;;;;;;0.90;0.90;;;;;;;;;;5040910;28;20196;-64
2022/01/18 07:40:41;;;;;;;0.13;0.13;;;;;;;;;;5040887;28;20214;-66
2022/01/18 07:43:08;;;;;;;0.23;0.23;;;;;;;;;;5044451;28;20196;-68
2022/01/18 07:45:36;;;;;;;0.43;0.43;;;;;;;;;;5039267;28;20224;-69
2022/01/18 07:48:05;;;;;;;0.30;0.30;;;;;;;;;;5034583;28;20206;-67
2022/01/18 07:50:32;;;;;;;0.00;0.00;;;;;;;;;;5032623;28;20775;-68
2022/01/18 07:52:59;;;;;;;0.00;0.00;;;;;;;;;;5031770;28;20794;-68
2022/01/18 07:55:27;;;;;;;0.10;0.10;;;;;;;;;;5032843;28;20227;-67
2022/01/18 07:57:57;;;;;;;0.30;0.30;;;;;;;;;;5032275;28;20795;-69
2022/01/18 08:00:24;;;;;;;0.00;0.00;;;;;;;;;;5033576;28;20198;-71
2022/01/18 08:02:51;;;;;;;0.00;0.00;;;;;;;;;;5032144;28;20203;-71
2022/01/18 08:05:21;;;;;;;0.00;0.00;;;;;;;;;;5030333;28;20681;-70
2022/01/18 08:07:48;;;;;;;0.00;0.00;;;;;;;;;;5031309;28;21458;-71
2022/01/18 08:10:18;;;;;;;0.17;0.17;;;;;;;;;;5029772;28;20243;-71
2022/01/18 08:12:46;;;;;;;0.00;0.00;;;;;;;;;;5033891;28;20187;-69
2022/01/18 08:15:16;;;;;;;0.00;0.00;;;;;;;;;;5036232;28;20236;-69
2022/01/18 08:17:44;;;;;;;0.00;0.00;;;;;;;;;;5035977;28;20270;-71
2022/01/18 08:20:13;;;;;;;0.00;0.00;;;;;;;;;;5036064;28;20227;-66
2022/01/18 08:22:43;;;;;;;0.00;0.00;;;;;;;;;;5037669;28;20573;-68
2022/01/18 08:25:11;;;;;;;0.00;0.00;;;;;;;;;;5033790;28;20612;-66
2022/01/18 08:27:39;;;;;;;0.00;0.00;;;;;;;;;;5035068;28;22212;-72
2022/01/18 08:30:08;;;;;;;0.00;0.00;;;;;;;;;;5029907;28;20787;-72
2022/01/18 08:32:35;;;;;;;0.00;0.00;;;;;;;;;;5033424;28;20212;-72
2022/01/18 08:35:02;;;;;;;0.50;0.47;;;;;;;;;;5031292;28;20953;-69
2022/01/18 08:37:30;;;;;;;0.00;0.00;;;;;;;;;;5032583;28;20195;-67
2022/01/18 08:39:58;;;;;;;0.10;0.10;;;;;;;;;;5035506;28;20196;-66
2022/01/18 08:42:26;;;;;;;0.00;0.00;;;;;;;;;;5032818;28;20370;-65
2022/01/18 08:44:53;;;;;;;0.00;0.00;;;;;;;;;;5032318;28;20195;-67
2022/01/18 08:47:21;;;;;;;0.20;0.20;;;;;;;;;;5031697;28;20204;-68
2022/01/18 08:49:48;;;;;;;0.00;0.00;;;;;;;;;;5031346;28;20206;-66
2022/01/18 08:52:16;;;;;;;0.00;0.00;;;;;;;;;;5030454;28;20200;-66
2022/01/18 08:54:43;;;;;;;0.20;0.20;;;;;;;;;;5033554;28;20266;-66
2022/01/18 08:57:12;;;;;;;0.00;0.00;;;;;;;;;;5031875;28;20223;-66
2022/01/18 08:59:39;;;;;;;0.00;0.00;;;;;;;;;;5034891;28;20204;-66
2022/01/18 09:02:07;;;;;;;0.00;0.00;;;;;;;;;;5031043;28;20199;-69
2022/01/18 09:04:35;;;;;;;0.00;0.00;;;;;;;;;;5032113;28;20208;-65
2022/01/18 09:07:06;;;;;;;0.00;0.00;;;;;;;;;;5033280;28;20231;-68
2022/01/18 09:09:34;;;;;;;0.00;0.00;;;;;;;;;;5029287;28;20671;-68
2022/01/18 09:12:01;;;;;;;0.00;0.00;;;;;;;;;;5029213;28;20200;-68
2022/01/18 09:14:30;;;;;;;0.00;0.00;;;;;;;;;;5034409;28;20194;-67
2022/01/18 09:16:57;;;;;;;0.47;0.47;;;;;;;;;;5035313;28;20231;-66
2022/01/18 09:19:25;;;;;;;0.00;0.00;;;;;;;;;;5030724;28;20239;-66
2022/01/18 09:21:52;;;;;;;0.00;0.00;;;;;;;;;;5038561;28;20195;-65
2022/01/18 09:24:20;;;;;;;0.00;0.00;;;;;;;;;;5034927;28;20203;-66
2022/01/18 09:26:47;;;;;;;0.33;0.33;;;;;;;;;;5037082;28;20211;-66
2022/01/18 09:29:15;;;;;;;0.30;0.30;;;;;;;;;;5033563;28;20202;-66
2022/01/18 09:31:43;;;;;;;0.00;0.00;;;;;;;;;;5035271;28;20200;-66
2022/01/18 09:34:11;;;;;;;0.00;0.00;;;;;;;;;;5035516;28;20247;-65
2022/01/18 09:36:38;;;;;;;0.23;0.20;;;;;;;;;;5034221;28;20815;-65
2022/01/18 09:39:06;;;;;;;0.93;0.80;;;;;;;;;;5033683;28;20870;-66
2022/01/18 09:41:39;;;;;;;0.40;0.40;;;;;;;;;;5033879;28;20679;-65
2022/01/18 09:44:06;;;;;;;0.17;0.17;;;;;;;;;;5032574;28;20210;-64
2022/01/18 09:46:34;;;;;;;0.10;0.10;;;;;;;;;;5034017;28;20203;-65
2022/01/18 09:49:05;;;;;;;0.40;0.30;;;;;;;;;;5030675;28;20676;-64
2022/01/18 09:51:32;;;;;;;1.50;0.60;;;;;;;;;;5033634;28;20200;-64
2022/01/18 09:54:00;;;;;;;0.43;0.43;;;;;;;;;;5038117;28;20206;-65
2022/01/18 09:56:27;;;;;;;0.80;0.80;;;;;;;;;;5030500;28;20231;-66
2022/01/18 09:58:54;;;;;;;1.33;1.20;;;;;;;;;;5031623;28;20204;-66
2022/01/18 10:01:22;;;;;;;0.27;0.27;;;;;;;;;;5031795;28;20207;-66
2022/01/18 10:03:49;;;;;;;0.00;0.00;;;;;;;;;;5033804;28;20720;-65
2022/01/18 10:06:21;;;;;;;0.40;0.40;;;;;;;;;;5034644;28;20545;-66
2022/01/18 10:08:49;;;;;;;0.07;0.07;;;;;;;;;;5031104;28;20678;-64
2022/01/18 10:11:17;;;;;;;0.20;0.20;;;;;;;;;;5029514;28;20256;-66
2022/01/18 10:13:46;;;;;;;0.13;0.13;;;;;;;;;;5036589;28;20295;-68
2022/01/18 10:16:15;;;;;;;0.10;0.10;;;;;;;;;;5031505;28;20239;-68
2022/01/18 10:18:46;;;;;;;0.20;0.20;;;;;;;;;;5034030;28;20254;-66
2022/01/18 10:21:26;;;;;;;0.93;0.93;;;;;;;;;;5034923;28;20200;-66
2022/01/18 10:24:10;;;;;;;0.63;0.63;;;;;;;;;;5034074;28;20199;-66
2022/01/18 10:26:39;;;;;;;2.10;1.17;;;;;;;;;;5031682;28;20223;-67
2022/01/18 10:29:07;;;;;;;0.20;0.20;;;;;;;;;;5032780;28;20191;-67
2022/01/18 10:31:40;;;;;;;4.03;3.73;;;;;;;;;;5032609;28;20199;-67
2022/01/18 10:34:25;;;;;;;0.53;0.53;;;;;;;;;;5031695;28;20196;-66
2022/01/18 10:36:58;;;;;;;0.53;0.53;;;;;;;;;;5031839;28;20223;-64
2022/01/18 10:39:26;;;;;;;0.67;0.67;;;;;;;;;;5032958;28;20615;-64
2022/01/18 10:41:54;;;;;;;0.43;0.43;;;;;;;;;;5031013;28;20200;-65
2022/01/18 10:44:23;;;;;;;0.07;0.07;;;;;;;;;;5028531;28;20196;-67
2022/01/18 10:46:51;;;;;;;0.80;0.80;;;;;;;;;;5030585;28;20196;-67
2022/01/18 10:49:32;;;;;;;0.00;0.00;;;;;;;;;;5031122;28;20227;-68
2022/01/18 10:52:04;;;;;;;0.00;0.00;;;;;;;;;;5046852;28;20187;-65
2022/01/18 10:54:39;;;;;;;0.23;0.23;;;;;;;;;;5043624;28;20207;-64
2022/01/18 10:57:07;;;;;;;0.77;0.77;;;;;;;;;;5037259;28;20227;-65
2022/01/18 10:59:37;;;;;;;0.10;0.10;;;;;;;;;;5042968;28;20221;-65
2022/01/18 11:02:10;;;;;;;0.40;0.40;;;;;;;;;;5047451;28;20744;-65
2022/01/18 11:04:38;;;;;;;0.47;0.47;;;;;;;;;;5046081;28;20218;-64
2022/01/18 11:07:07;;;;;;;0.20;0.20;;;;;;;;;;5043676;28;20199;-64
2022/01/18 11:09:35;;;;;;;0.30;0.30;;;;;;;;;;5041770;28;20197;-65
2022/01/18 11:12:04;;;;;;;0.00;0.00;;;;;;;;;;5045191;28;20569;-65
2022/01/18 11:14:32;;;;;;;0.00;0.00;;;;;;;;;;5048141;28;20204;-63
2022/01/18 11:17:02;;;;;;;0.00;0.00;;;;;;;;;;5044189;28;20766;-64
2022/01/18 11:19:33;;;;;;;0.00;0.00;;;;;;;;;;5043898;28;20242;-63
2022/01/18 11:22:02;;;;;;;0.37;0.37;;;;;;;;;;5041217;28;20196;-66
2022/01/18 11:24:32;;;;;;;0.00;0.00;;;;;;;;;;5049597;28;20191;-64
2022/01/18 11:27:00;;;;;;;0.37;0.37;;;;;;;;;;5046397;28;20685;-64
2022/01/18 11:29:29;;;;;;;0.00;0.00;;;;;;;;;;5043839;28;20212;-65
2022/01/18 11:31:57;;;;;;;0.37;0.37;;;;;;;;;;5046464;28;20206;-65
2022/01/18 11:34:31;;;;;;;0.00;0.00;;;;;;;;;;5047224;28;20583;-65
2022/01/18 11:37:01;;;;;;;0.40;0.40;;;;;;;;;;5045389;28;20223;-63
2022/01/18 11:39:32;;;;;;;0.10;0.07;;;;;;;;;;5043159;28;20737;-64
2022/01/18 11:42:07;;;;;;;0.00;0.00;;;;;;;;;;5044218;28;20265;-64
2022/01/18 11:44:35;;;;;;;1.57;1.47;;;;;;;;;;5046919;28;20199;-64
2022/01/18 11:47:03;;;;;;;0.00;0.00;;;;;;;;;;5047704;28;20809;-64
2022/01/18 11:49:33;;;;;;;0.40;0.40;;;;;;;;;;5042105;28;20679;-65
2022/01/18 11:52:03;;;;;;;0.00;0.00;;;;;;;;;;5046719;28;20205;-66
2022/01/18 11:54:40;;;;;;;0.50;0.50;;;;;;;;;;5049147;28;20272;-66
2022/01/18 11:57:27;;;;;;;1.90;1.80;;;;;;;;;;5044432;28;20233;-65
2022/01/18 11:59:55;;;;;;;0.00;0.00;;;;;;;;;;5047861;28;20219;-64
2022/01/18 12:02:28;;;;;;;0.00;0.00;;;;;;;;;;5048840;28;20214;-65
2022/01/18 12:05:08;;;;;;;0.00;0.00;;;;;;;;;;5043441;28;20204;-65
2022/01/18 12:07:49;;;;;;;0.00;0.00;;;;;;;;;;5042959;28;20299;-64
2022/01/18 12:10:32;;;;;;;0.00;0.00;;;;;;;;;;5047396;28;20207;-67
2022/01/18 12:13:02;;;;;;;0.00;0.00;;;;;;;;;;5047902;28;20199;-69
2022/01/18 12:15:49;;;;;;;0.13;0.13;;;;;;;;;;5040733;28;20200;-69
2022/01/18 12:18:18;;;;;;;0.00;0.00;;;;;;;;;;5035408;28;20243;-67
2022/01/18 12:20:46;;;;;;;0.00;0.00;;;;;;;;;;5036037;28;20211;-66
2022/01/18 12:23:17;;;;;;;0.00;0.00;;;;;;;;;;5034118;28;20206;-67
2022/01/18 12:25:55;;;;;;;1.33;1.33;;;;;;;;;;5039823;28;20199;-67
2022/01/18 12:28:56;;;;;;;0.20;0.20;;;;;;;;;;5036757;28;21585;-67
2022/01/18 12:32:03;;;;;;;0.00;0.00;;;;;;;;;;5040446;28;20225;-68
2022/01/18 12:34:33;;;;;;;0.00;0.00;;;;;;;;;;5034124;28;20218;-68
2022/01/18 12:37:17;;;;;;;0.00;0.00;;;;;;;;;;5037465;28;20227;-66
2022/01/18 12:40:05;;;;;;;0.00;0.00;;;;;;;;;;5033481;28;20658;-66
2022/01/18 12:45:19;;;;;;;0.00;0.00;;;;;;;;;;5031921;28;20574;-67
2022/01/18 12:47:48;;;;;;;0.30;0.30;;;;;;;;;;5036257;28;20211;-64
2022/01/18 12:50:17;;;;;;;0.00;0.00;;;;;;;;;;5036283;28;20282;-66
2022/01/18 12:52:48;;;;;;;0.57;0.57;;;;;;;;;;5032905;28;20201;-68
2022/01/18 12:55:25;;;;;;;1.47;1.43;;;;;;;;;;5036142;28;20214;-66
2022/01/18 12:57:58;;;;;;;1.20;1.20;;;;;;;;;;5036008;28;20216;-66
2022/01/18 13:00:27;;;;;;;0.00;0.00;;;;;;;;;;5034204;28;20203;-66
2022/01/18 13:02:58;;;;;;;0.00;0.00;;;;;;;;;;5034657;28;20592;-65
2022/01/18 13:05:33;;;;;;;0.67;0.47;;;;;;;;;;5034326;28;20786;-65
2022/01/18 13:08:01;;;;;;;0.40;0.40;;;;;;;;;;5030557;28;22462;-68
2022/01/18 13:10:34;;;;;;;0.00;0.00;;;;;;;;;;5036471;28;20215;-65
2022/01/18 13:13:02;;;;;;;0.00;0.00;;;;;;;;;;5032474;28;20188;-66
2022/01/18 13:15:47;;;;;;;0.00;0.00;;;;;;;;;;5033703;28;20653;-67
2022/01/18 13:24:05;;;;;;;0.67;0.67;;;;;;;;;;5030398;28;20256;-67
2022/01/18 13:26:36;;;;;;;0.03;0.03;;;;;;;;;;5035369;28;20668;-67
2022/01/18 13:29:14;;;;;;;0.00;0.00;;;;;;;;;;5034355;28;20653;-70
2022/01/18 13:31:46;;;;;;;0.00;0.00;;;;;;;;;;5034309;28;20610;-67
2022/01/18 13:34:15;;;;;;;4.43;4.23;;;;;;;;;;5031433;28;20201;-69
2022/01/18 13:36:53;;;;;;;0.10;0.10;;;;;;;;;;5030842;28;20251;-67
2022/01/18 13:39:28;;;;;;;0.73;0.73;;;;;;;;;;5033122;28;20215;-69
2022/01/18 13:41:56;;;;;;;0.50;0.50;;;;;;;;;;5031490;28;20195;-67
2022/01/18 13:44:23;;;;;;;0.00;0.00;;;;;;;;;;5033053;28;20584;-67
2022/01/18 13:46:52;;;;;;;0.10;0.10;;;;;;;;;;5032882;28;20597;-67
2022/01/18 13:49:24;;;;;;;0.00;0.00;;;;;;;;;;5038619;28;20214;-67
2022/01/18 13:52:01;;;;;;;0.00;0.00;;;;;;;;;;5044543;28;20203;-68
2022/01/18 13:54:29;;;;;;;0.00;0.00;;;;;;;;;;5042997;28;20231;-68
2022/01/18 13:56:56;;;;;;;2.90;0.60;;;;;;;;;;5040609;28;20231;-67
2022/01/18 13:59:28;;;;;;;2.63;1.87;;;;;;;;;;5043980;28;20231;-67
2022/01/18 14:01:56;;;;;;;1.03;0.93;;;;;;;;;;5046794;28;20221;-67
2022/01/18 14:04:24;;;;;;;0.30;0.30;;;;;;;;;;5046935;28;20206;-67
2022/01/18 14:06:55;;;;;;;0.00;0.00;;;;;;;;;;5032858;28;20199;-67
2022/01/18 14:09:24;;;;;;;0.00;0.00;;;;;;;;;;5031799;28;20196;-67
2022/01/18 14:11:52;;;;;;;0.00;0.00;;;;;;;;;;5031188;28;20201;-67
2022/01/18 14:14:21;;;;;;;1.40;1.17;;;;;;;;;;5030490;28;20285;-68
2022/01/18 14:16:49;;;;;;;0.83;0.83;;;;;;;;;;5034196;28;20249;-67
2022/01/18 14:19:27;;;;;;;1.17;1.10;;;;;;;;;;5032842;28;20219;-67
2022/01/18 14:21:55;;;;;;;0.00;0.00;;;;;;;;;;5036782;28;20187;-67
2022/01/18 14:24:24;;;;;;;0.00;0.00;;;;;;;;;;5032688;28;20206;-68
2022/01/18 14:27:02;;;;;;;0.00;0.00;;;;;;;;;;5031628;28;20230;-67
2022/01/18 14:29:31;;;;;;;0.67;0.60;;;;;;;;;;5032823;28;20696;-68
2022/01/18 14:32:02;;;;;;;0.00;0.00;;;;;;;;;;5030320;28;20719;-66
2022/01/18 14:34:33;;;;;;;4.50;2.30;;;;;;;;;;5032128;28;20196;-67
2022/01/18 14:37:00;;;;;;;2.10;2.00;;;;;;;;;;5032134;28;20520;-68
2022/01/18 14:39:28;;;;;;;0.00;0.00;;;;;;;;;;5031404;28;21384;-67
2022/01/18 14:41:59;;;;;;;0.00;0.00;;;;;;;;;;5030926;28;20198;-68
2022/01/18 14:44:36;;;;;;;0.60;0.60;;;;;;;;;;5028567;28;20196;-69
2022/01/18 14:49:51;;;;;;;0.83;0.83;;;;;;;;;;5013931;28;20269;-68
2022/01/18 14:52:18;;;;;;;0.03;0.03;;;;;;;;;;5011581;28;20203;-70
2022/01/18 14:54:45;;;;;;;4.23;2.47;;;;;;;;;;5016692;28;20188;-69
2022/01/18 14:57:13;;;;;;;1.53;0.40;;;;;;;;;;5012517;28;20219;-66
2022/01/18 14:59:41;;;;;;;0.00;0.00;;;;;;;;;;5049605;28;20206;-68
2022/01/18 15:02:09;;;;;;;1.13;0.80;;;;;;;;;;5050422;28;20192;-68
2022/01/18 15:04:37;;;;;;;0.00;0.00;;;;;;;;;;5046042;28;20665;-67
2022/01/18 15:07:06;;;;;;;0.00;0.00;;;;;;;;;;5050655;28;20657;-66
2022/01/18 15:09:34;;;;;;;0.53;0.33;;;;;;;;;;5049693;28;20200;-66
2022/01/18 15:12:03;;;;;;;1.00;0.93;;;;;;;;;;5048219;28;20207;-66
2022/01/18 15:14:30;;;;;;;0.10;0.10;;;;;;;;;;5053761;28;20561;-67
2022/01/18 15:16:58;;;;;;;0.00;0.00;;;;;;;;;;5049665;28;20192;-68
2022/01/18 15:19:25;;;;;;;0.00;0.00;;;;;;;;;;5051783;28;20242;-68
2022/01/18 15:21:54;;;;;;;0.00;0.00;;;;;;;;;;5048268;28;20200;-66
2022/01/18 15:24:22;;;;;;;0.00;0.00;;;;;;;;;;5053320;28;20230;-68
2022/01/18 15:26:50;;;;;;;0.00;0.00;;;;;;;;;;5052053;28;20751;-67
2022/01/18 15:29:17;;;;;;;0.00;0.00;;;;;;;;;;5051010;28;20207;-65
2022/01/18 15:31:45;;;;;;;0.00;0.00;;;;;;;;;;5066023;28;20717;-65
2022/01/18 15:34:12;;;;;;;0.00;0.00;;;;;;;;;;5053760;28;20283;-65
2022/01/18 15:36:40;;;;;;;0.00;0.00;;;;;;;;;;5045456;28;20200;-69
2022/01/18 15:39:07;;;;;;;0.00;0.00;;;;;;;;;;5049912;28;20612;-65
2022/01/18 15:41:37;;;;;;;0.00;0.00;;;;;;;;;;5047744;28;20200;-65
2022/01/18 15:44:04;;;;;;;0.00;0.00;;;;;;;;;;5044161;28;20198;-67
2022/01/18 15:46:31;;;;;;;0.00;0.00;;;;;;;;;;5047174;28;20261;-68
2022/01/18 15:48:59;;;;;;;0.00;0.00;;;;;;;;;;5051398;28;20196;-67
2022/01/18 15:51:26;;;;;;;0.00;0.00;;;;;;;;;;5049411;28;20570;-67
2022/01/18 15:53:54;;;;;;;0.00;0.00;;;;;;;;;;5049119;28;20195;-65
2022/01/18 15:56:21;;;;;;;0.00;0.00;;;;;;;;;;5048972;28;20204;-66
2022/01/18 15:58:50;;;;;;;0.70;0.70;;;;;;;;;;5048767;28;20222;-66